Time;durP1;ratioP1;P1;durP2;ratioP2;P2;SDS_P1;SDS_P2;PMS_P1;PMS_P2;Temp;Humidity;BMP_temperature;BMP_pressure;BME280_temperature;BME280_humidity;BME280_pressure;Samples;Min_cycle;Max_cycle;Signal;HPM_P1;HPM_P2
2023/07/04 00:01:03;;;;;;;5.90;4.10;;;;;;;;;;5051236;28;20624;-55
2023/07/04 00:03:30;;;;;;;6.13;3.27;;;;;;;;;;5068277;28;20168;-54
2023/07/04 00:05:57;;;;;;;7.33;3.70;;;;;;;;;;5070208;28;20258;-55
2023/07/04 00:08:25;;;;;;;8.03;3.70;;;;;;;;;;5055017;28;20180;-56
2023/07/04 00:10:52;;;;;;;7.00;3.83;;;;;;;;;;5073299;28;20607;-54
2023/07/04 00:13:19;;;;;;;7.13;3.57;;;;;;;;;;5073049;28;20176;-55
2023/07/04 00:15:49;;;;;;;8.20;4.03;;;;;;;;;;5054021;28;20559;-54
2023/07/04 00:18:20;;;;;;;8.27;3.80;;;;;;;;;;5071908;28;20172;-56
2023/07/04 00:20:46;;;;;;;6.27;3.80;;;;;;;;;;5071746;28;20157;-54
2023/07/04 00:23:12;;;;;;;6.17;3.83;;;;;;;;;;5072870;28;20175;-56
2023/07/04 00:25:38;;;;;;;8.10;3.53;;;;;;;;;;5072880;28;20161;-55
2023/07/04 00:28:05;;;;;;;7.30;3.43;;;;;;;;;;5062721;28;20180;-57
2023/07/04 00:30:34;;;;;;;6.53;3.37;;;;;;;;;;5052910;28;20577;-56
2023/07/04 00:33:01;;;;;;;8.53;4.33;;;;;;;;;;5052292;28;20176;-55
2023/07/04 00:35:27;;;;;;;6.77;3.77;;;;;;;;;;5052489;28;20265;-55
2023/07/04 00:37:53;;;;;;;6.90;4.20;;;;;;;;;;5052614;28;20662;-56
2023/07/04 00:40:21;;;;;;;7.27;3.30;;;;;;;;;;5052885;28;20185;-54
2023/07/04 00:42:49;;;;;;;7.47;3.33;;;;;;;;;;5051558;28;20227;-56
2023/07/04 00:45:20;;;;;;;6.13;3.57;;;;;;;;;;5052692;28;20246;-56
2023/07/04 00:48:00;;;;;;;8.67;3.73;;;;;;;;;;5052364;28;20166;-56
2023/07/04 00:50:31;;;;;;;8.97;3.33;;;;;;;;;;5053331;28;20170;-55
2023/07/04 00:53:00;;;;;;;5.37;3.40;;;;;;;;;;5052710;28;20163;-56
2023/07/04 00:55:27;;;;;;;7.87;4.33;;;;;;;;;;5052185;28;20204;-56
2023/07/04 00:57:54;;;;;;;6.93;3.53;;;;;;;;;;5052501;28;20529;-55
2023/07/04 01:00:23;;;;;;;7.93;3.40;;;;;;;;;;5051435;28;20181;-55
2023/07/04 01:02:51;;;;;;;8.87;3.97;;;;;;;;;;5050723;28;20243;-55
2023/07/04 01:05:33;;;;;;;7.27;3.80;;;;;;;;;;5052074;28;20210;-55
2023/07/04 01:08:03;;;;;;;9.00;3.47;;;;;;;;;;5052055;28;20169;-54
2023/07/04 01:10:32;;;;;;;4.93;3.57;;;;;;;;;;5050933;28;20599;-54
2023/07/04 01:13:19;;;;;;;6.50;2.90;;;;;;;;;;5052235;28;20574;-54
2023/07/04 01:15:57;;;;;;;6.97;3.57;;;;;;;;;;5047488;28;20217;-55
2023/07/04 01:18:25;;;;;;;6.97;3.33;;;;;;;;;;5050461;28;20416;-56
2023/07/04 01:20:52;;;;;;;8.93;3.13;;;;;;;;;;5052706;28;20185;-58
2023/07/04 01:23:53;;;;;;;6.83;3.07;;;;;;;;;;5051583;28;20170;-58
2023/07/04 01:26:34;;;;;;;7.83;3.80;;;;;;;;;;5018989;28;20186;-58
2023/07/04 01:29:09;;;;;;;7.70;3.23;;;;;;;;;;5051783;28;20219;-57
2023/07/04 01:31:37;;;;;;;8.50;3.63;;;;;;;;;;5051670;28;20173;-59
2023/07/04 01:34:11;;;;;;;6.93;3.73;;;;;;;;;;5050153;28;20279;-59
2023/07/04 01:36:42;;;;;;;9.23;3.90;;;;;;;;;;5051859;28;20169;-60
2023/07/04 01:39:15;;;;;;;11.20;4.70;;;;;;;;;;5050881;28;20550;-59
2023/07/04 01:41:47;;;;;;;8.37;3.50;;;;;;;;;;5051565;28;20157;-60
2023/07/04 01:44:16;;;;;;;7.17;3.10;;;;;;;;;;5049663;28;20541;-60
2023/07/04 01:46:46;;;;;;;9.17;3.77;;;;;;;;;;5050967;28;20230;-60
2023/07/04 01:49:12;;;;;;;7.43;3.00;;;;;;;;;;5050676;28;20169;-60
2023/07/04 01:51:40;;;;;;;6.40;3.83;;;;;;;;;;5063077;28;20589;-58
2023/07/04 01:54:06;;;;;;;6.17;3.50;;;;;;;;;;5070162;28;20197;-58
2023/07/04 01:56:33;;;;;;;5.90;3.67;;;;;;;;;;5070508;28;20247;-56
2023/07/04 01:58:59;;;;;;;6.47;3.80;;;;;;;;;;5070568;28;20240;-57
2023/07/04 02:01:25;;;;;;;4.90;2.97;;;;;;;;;;5070516;28;20197;-58
2023/07/04 02:03:51;;;;;;;4.57;2.97;;;;;;;;;;5069522;28;20192;-58
2023/07/04 02:06:18;;;;;;;7.83;3.00;;;;;;;;;;5070443;28;20168;-58
2023/07/04 02:08:44;;;;;;;7.33;3.17;;;;;;;;;;5070676;28;20165;-56
2023/07/04 02:11:10;;;;;;;8.40;3.73;;;;;;;;;;5070277;28;20199;-58
2023/07/04 02:13:36;;;;;;;7.67;3.10;;;;;;;;;;5068034;28;20220;-57
2023/07/04 02:16:02;;;;;;;8.30;3.50;;;;;;;;;;5069333;28;20192;-59
2023/07/04 02:18:29;;;;;;;6.73;3.33;;;;;;;;;;5067133;28;20651;-57
2023/07/04 02:20:55;;;;;;;9.03;3.53;;;;;;;;;;5050136;28;20161;-59
2023/07/04 02:23:21;;;;;;;7.83;3.50;;;;;;;;;;5037119;28;20230;-58
2023/07/04 02:25:48;;;;;;;9.20;3.80;;;;;;;;;;5069875;28;20175;-57
2023/07/04 02:28:14;;;;;;;8.10;3.63;;;;;;;;;;5069954;28;20592;-59
2023/07/04 02:30:42;;;;;;;9.57;3.63;;;;;;;;;;5068627;28;20173;-59
2023/07/04 02:33:08;;;;;;;6.53;3.80;;;;;;;;;;5069363;28;20176;-59
2023/07/04 02:35:34;;;;;;;4.37;3.20;;;;;;;;;;5069916;28;20963;-59
2023/07/04 02:38:00;;;;;;;13.17;4.73;;;;;;;;;;5070072;28;20688;-59
2023/07/04 02:40:26;;;;;;;9.87;3.70;;;;;;;;;;5069892;28;20189;-59
2023/07/04 02:42:52;;;;;;;9.40;3.77;;;;;;;;;;5069940;28;20598;-59
2023/07/04 02:45:18;;;;;;;7.07;3.40;;;;;;;;;;5068973;28;20186;-59
2023/07/04 02:47:44;;;;;;;5.37;3.10;;;;;;;;;;5069028;28;20183;-54
2023/07/04 02:50:10;;;;;;;6.43;3.90;;;;;;;;;;5069312;28;20172;-57
2023/07/04 02:52:36;;;;;;;8.37;3.60;;;;;;;;;;5069441;28;20168;-58
2023/07/04 02:55:02;;;;;;;9.53;4.60;;;;;;;;;;5069223;28;20612;-58
2023/07/04 02:57:28;;;;;;;9.10;4.73;;;;;;;;;;5068942;28;20252;-58
2023/07/04 02:59:56;;;;;;;7.33;3.30;;;;;;;;;;5069248;28;20681;-57
2023/07/04 03:02:23;;;;;;;8.50;4.13;;;;;;;;;;5068041;28;20263;-58
2023/07/04 03:04:51;;;;;;;10.50;4.45;;;;;;;;;;5068569;28;21088;-59
2023/07/04 03:07:18;;;;;;;11.27;4.03;;;;;;;;;;5069021;28;20711;-59
2023/07/04 03:09:44;;;;;;;11.80;4.73;;;;;;;;;;5069531;28;20575;-58
2023/07/04 03:12:10;;;;;;;10.83;4.97;;;;;;;;;;5069035;28;20267;-64
2023/07/04 03:14:36;;;;;;;7.70;3.97;;;;;;;;;;5069263;28;20658;-57
2023/07/04 03:17:02;;;;;;;9.67;6.17;;;;;;;;;;5068009;28;20658;-58
2023/07/04 03:19:28;;;;;;;10.87;3.83;;;;;;;;;;5069086;28;20173;-58
2023/07/04 03:21:54;;;;;;;6.60;3.40;;;;;;;;;;5068555;28;20249;-56
2023/07/04 03:24:20;;;;;;;7.13;3.40;;;;;;;;;;5067323;28;20211;-59
2023/07/04 03:26:47;;;;;;;7.77;3.90;;;;;;;;;;5068819;28;20184;-58
2023/07/04 03:29:13;;;;;;;9.10;3.57;;;;;;;;;;5069432;28;20161;-56
2023/07/04 03:31:39;;;;;;;8.10;5.97;;;;;;;;;;5069106;28;20176;-57
2023/07/04 03:34:05;;;;;;;10.23;3.77;;;;;;;;;;5067878;28;20255;-55
2023/07/04 03:36:31;;;;;;;8.40;3.83;;;;;;;;;;5069117;28;20557;-56
2023/07/04 03:38:57;;;;;;;7.27;3.73;;;;;;;;;;5068790;28;20160;-57
2023/07/04 03:41:23;;;;;;;8.47;3.23;;;;;;;;;;5068863;28;20330;-57
2023/07/04 03:43:49;;;;;;;8.50;3.40;;;;;;;;;;5068982;28;20656;-60
2023/07/04 03:46:15;;;;;;;8.63;3.80;;;;;;;;;;5068310;28;20238;-56
2023/07/04 03:48:42;;;;;;;8.03;3.47;;;;;;;;;;5067868;28;20176;-59
2023/07/04 03:51:08;;;;;;;9.57;4.00;;;;;;;;;;5068669;28;20267;-55
2023/07/04 03:53:37;;;;;;;8.20;3.67;;;;;;;;;;5068897;28;20629;-55
2023/07/04 03:56:05;;;;;;;10.73;4.10;;;;;;;;;;5068326;28;20228;-56
2023/07/04 03:58:34;;;;;;;12.67;4.67;;;;;;;;;;5068662;28;20169;-59
2023/07/04 04:01:01;;;;;;;12.33;4.57;;;;;;;;;;5068872;28;20169;-59
2023/07/04 04:03:28;;;;;;;7.60;3.90;;;;;;;;;;5067633;28;20195;-59
2023/07/04 04:05:54;;;;;;;13.23;4.23;;;;;;;;;;5068385;28;20188;-59
2023/07/04 04:08:21;;;;;;;11.97;3.33;;;;;;;;;;5050631;28;20184;-60
2023/07/04 04:10:48;;;;;;;7.97;3.77;;;;;;;;;;5052706;28;20540;-61
2023/07/04 04:13:14;;;;;;;9.13;4.20;;;;;;;;;;5048702;28;20173;-59
2023/07/04 04:15:41;;;;;;;8.13;3.20;;;;;;;;;;5048229;28;20560;-60
2023/07/04 04:18:07;;;;;;;9.03;3.90;;;;;;;;;;5047992;28;20926;-60
2023/07/04 04:20:34;;;;;;;10.73;4.33;;;;;;;;;;5048252;28;20180;-60
2023/07/04 04:23:02;;;;;;;10.97;3.97;;;;;;;;;;5048683;28;20177;-59
2023/07/04 04:25:28;;;;;;;8.57;3.47;;;;;;;;;;5047022;28;20319;-60
2023/07/04 04:27:54;;;;;;;7.50;3.33;;;;;;;;;;5048300;28;20640;-59
2023/07/04 04:30:21;;;;;;;7.70;3.60;;;;;;;;;;5048144;28;20535;-59
2023/07/04 04:32:47;;;;;;;8.77;3.20;;;;;;;;;;5048029;28;20624;-60
2023/07/04 04:35:15;;;;;;;8.77;3.70;;;;;;;;;;5048234;28;20288;-59
2023/07/04 04:37:41;;;;;;;12.30;4.27;;;;;;;;;;5048634;28;20192;-59
2023/07/04 04:40:07;;;;;;;8.23;3.70;;;;;;;;;;5048342;28;20216;-59
2023/07/04 04:42:34;;;;;;;6.53;4.20;;;;;;;;;;5048569;28;20169;-58
2023/07/04 04:45:01;;;;;;;7.63;3.90;;;;;;;;;;5048045;28;20283;-58
2023/07/04 04:47:32;;;;;;;10.77;3.97;;;;;;;;;;5047194;28;20612;-58
2023/07/04 04:50:01;;;;;;;14.50;4.60;;;;;;;;;;5048378;28;20231;-58
2023/07/04 04:52:31;;;;;;;8.67;4.30;;;;;;;;;;5048325;28;20192;-61
2023/07/04 04:54:58;;;;;;;8.17;3.23;;;;;;;;;;5051871;28;20288;-59
2023/07/04 04:57:24;;;;;;;10.33;4.00;;;;;;;;;;5051690;28;20317;-56
2023/07/04 04:59:51;;;;;;;11.17;4.00;;;;;;;;;;5052284;28;20526;-57
2023/07/04 05:02:18;;;;;;;7.97;4.30;;;;;;;;;;5050845;28;20157;-58
2023/07/04 05:04:44;;;;;;;12.30;4.00;;;;;;;;;;5061370;28;20208;-57
2023/07/04 05:07:12;;;;;;;9.10;3.43;;;;;;;;;;5071284;28;20940;-59
2023/07/04 05:09:39;;;;;;;9.87;4.37;;;;;;;;;;5071875;28;20234;-57
2023/07/04 05:12:05;;;;;;;13.30;4.00;;;;;;;;;;5071647;28;20172;-58
2023/07/04 05:14:32;;;;;;;7.63;5.17;;;;;;;;;;5072027;28;20203;-61
2023/07/04 05:16:58;;;;;;;10.67;4.33;;;;;;;;;;5070515;28;20194;-59
2023/07/04 05:19:25;;;;;;;10.03;3.80;;;;;;;;;;5072072;28;20705;-57
2023/07/04 05:21:51;;;;;;;7.23;3.37;;;;;;;;;;5071409;28;20240;-57
2023/07/04 05:24:18;;;;;;;12.40;4.10;;;;;;;;;;5071732;28;20292;-56
2023/07/04 05:26:44;;;;;;;10.47;3.90;;;;;;;;;;5053679;28;20165;-60
2023/07/04 05:29:10;;;;;;;9.53;4.07;;;;;;;;;;5071057;28;20173;-58
2023/07/04 05:31:37;;;;;;;9.47;4.27;;;;;;;;;;5052795;28;20264;-57
2023/07/04 05:34:04;;;;;;;8.93;3.97;;;;;;;;;;5069681;28;20175;-60
2023/07/04 05:36:32;;;;;;;7.70;3.60;;;;;;;;;;5070758;28;20200;-57
2023/07/04 05:39:02;;;;;;;13.90;4.23;;;;;;;;;;5070869;28;20157;-58
2023/07/04 05:41:30;;;;;;;10.07;4.00;;;;;;;;;;5070755;28;20722;-57
2023/07/04 05:43:58;;;;;;;8.63;4.47;;;;;;;;;;5070356;28;20528;-57
2023/07/04 05:46:24;;;;;;;11.33;3.60;;;;;;;;;;5068989;28;20168;-58
2023/07/04 05:48:51;;;;;;;15.03;4.67;;;;;;;;;;5068227;28;20230;-57
2023/07/04 05:51:18;;;;;;;7.07;3.60;;;;;;;;;;5068737;28;20168;-56
2023/07/04 05:53:47;;;;;;;10.93;4.53;;;;;;;;;;5068658;28;20180;-58
2023/07/04 05:56:14;;;;;;;10.97;4.43;;;;;;;;;;5068738;28;20228;-57
2023/07/04 05:58:42;;;;;;;7.50;3.43;;;;;;;;;;5068897;28;20165;-59
2023/07/04 06:01:17;;;;;;;8.57;3.60;;;;;;;;;;5052096;28;20495;-59
2023/07/04 06:03:46;;;;;;;11.50;4.20;;;;;;;;;;5069342;28;20155;-59
2023/07/04 06:06:20;;;;;;;6.63;3.70;;;;;;;;;;5070327;28;20184;-58
2023/07/04 06:08:46;;;;;;;12.93;4.23;;;;;;;;;;5070326;28;20171;-57
2023/07/04 06:11:12;;;;;;;9.00;4.77;;;;;;;;;;5070669;28;20220;-58
2023/07/04 06:13:39;;;;;;;11.53;4.50;;;;;;;;;;5069819;28;20222;-58
2023/07/04 06:16:05;;;;;;;12.50;4.10;;;;;;;;;;5069708;28;20211;-59
2023/07/04 06:18:32;;;;;;;5.70;3.50;;;;;;;;;;5069972;28;20650;-56
2023/07/04 06:21:08;;;;;;;10.87;3.97;;;;;;;;;;5070391;28;20528;-57
2023/07/04 06:23:34;;;;;;;9.50;4.93;;;;;;;;;;5070926;28;20600;-57
2023/07/04 06:26:00;;;;;;;9.63;4.30;;;;;;;;;;5069360;28;20199;-58
2023/07/04 06:28:26;;;;;;;10.07;4.13;;;;;;;;;;5070349;28;20184;-58
2023/07/04 06:30:52;;;;;;;11.20;4.83;;;;;;;;;;5069608;28;20225;-57
2023/07/04 06:33:18;;;;;;;6.43;3.83;;;;;;;;;;5068963;28;20290;-59
2023/07/04 06:35:48;;;;;;;8.87;3.90;;;;;;;;;;5069994;28;20771;-59
2023/07/04 06:38:14;;;;;;;11.10;4.80;;;;;;;;;;5069644;28;20578;-57
2023/07/04 06:40:41;;;;;;;10.37;4.03;;;;;;;;;;5069800;28;20174;-57
2023/07/04 06:43:07;;;;;;;10.10;4.60;;;;;;;;;;5069361;28;20161;-58
2023/07/04 06:45:34;;;;;;;9.17;5.27;;;;;;;;;;5069223;28;20226;-53
2023/07/04 06:48:00;;;;;;;13.20;4.97;;;;;;;;;;5069130;28;20183;-53
2023/07/04 06:50:28;;;;;;;11.77;4.87;;;;;;;;;;5069184;28;20262;-56
2023/07/04 06:52:54;;;;;;;15.43;5.40;;;;;;;;;;5069750;28;20218;-57
2023/07/04 06:55:21;;;;;;;11.40;4.47;;;;;;;;;;5069270;28;20201;-57
2023/07/04 06:57:47;;;;;;;7.83;4.80;;;;;;;;;;5069202;28;20258;-57
2023/07/04 07:00:14;;;;;;;9.63;4.60;;;;;;;;;;5069550;28;20522;-58
2023/07/04 07:02:40;;;;;;;6.93;4.03;;;;;;;;;;5068493;28;20169;-58
2023/07/04 07:05:07;;;;;;;10.13;4.97;;;;;;;;;;5068902;28;20200;-57
2023/07/04 07:07:33;;;;;;;16.37;4.77;;;;;;;;;;5069469;28;20177;-57
2023/07/04 07:09:59;;;;;;;11.87;4.67;;;;;;;;;;5069187;28;20246;-57
2023/07/04 07:12:25;;;;;;;10.97;4.40;;;;;;;;;;5069251;28;20200;-58
2023/07/04 07:14:51;;;;;;;7.33;3.80;;;;;;;;;;5068714;28;20188;-58
2023/07/04 07:17:18;;;;;;;7.30;4.87;;;;;;;;;;5067490;28;20172;-60
2023/07/04 07:19:44;;;;;;;8.57;3.83;;;;;;;;;;5069149;28;20161;-57
2023/07/04 07:22:10;;;;;;;7.17;4.17;;;;;;;;;;5068836;28;20168;-57
2023/07/04 07:24:37;;;;;;;8.07;3.97;;;;;;;;;;5069028;28;20206;-57
2023/07/04 07:27:03;;;;;;;8.03;4.27;;;;;;;;;;5068861;28;20161;-60
2023/07/04 07:29:29;;;;;;;5.23;3.60;;;;;;;;;;5069025;28;20165;-58
2023/07/04 07:31:55;;;;;;;8.77;4.40;;;;;;;;;;5068100;28;20267;-58
2023/07/04 07:34:21;;;;;;;7.47;3.63;;;;;;;;;;5050459;28;20645;-59
2023/07/04 07:36:48;;;;;;;8.33;3.63;;;;;;;;;;5068591;28;20172;-58
2023/07/04 07:39:15;;;;;;;9.60;5.00;;;;;;;;;;5068691;28;20164;-58
2023/07/04 07:41:43;;;;;;;7.30;3.90;;;;;;;;;;5069010;28;20184;-58
2023/07/04 07:44:09;;;;;;;9.27;3.80;;;;;;;;;;5068311;28;20160;-59
2023/07/04 07:46:36;;;;;;;11.73;4.13;;;;;;;;;;5068467;28;20164;-58
2023/07/04 07:49:03;;;;;;;9.23;4.13;;;;;;;;;;5067843;28;20322;-59
2023/07/04 07:51:29;;;;;;;10.33;4.50;;;;;;;;;;5068648;28;20299;-59
2023/07/04 07:53:57;;;;;;;12.37;4.30;;;;;;;;;;5068960;28;20666;-58
2023/07/04 07:56:25;;;;;;;6.57;3.90;;;;;;;;;;5068353;28;20236;-59
2023/07/04 07:58:51;;;;;;;6.30;3.57;;;;;;;;;;5068449;28;20177;-58
2023/07/04 08:01:25;;;;;;;8.37;4.00;;;;;;;;;;5068600;28;20681;-58
2023/07/04 08:03:52;;;;;;;9.20;3.50;;;;;;;;;;5067803;28;20193;-58
2023/07/04 08:06:41;;;;;;;10.57;4.37;;;;;;;;;;5068992;28;20164;-58
2023/07/04 08:09:09;;;;;;;9.47;3.97;;;;;;;;;;5068518;28;20585;-58
2023/07/04 08:11:36;;;;;;;6.43;3.40;;;;;;;;;;5068857;28;20289;-58
2023/07/04 08:14:02;;;;;;;10.30;4.30;;;;;;;;;;5069235;28;20176;-58
2023/07/04 08:16:31;;;;;;;10.00;3.37;;;;;;;;;;5067951;28;20290;-59
2023/07/04 08:18:59;;;;;;;6.77;3.93;;;;;;;;;;5068114;28;20985;-59
2023/07/04 08:21:26;;;;;;;11.93;3.90;;;;;;;;;;5050369;28;20833;-59
2023/07/04 08:23:52;;;;;;;6.70;3.83;;;;;;;;;;5068275;28;20177;-59
2023/07/04 08:26:20;;;;;;;7.97;3.50;;;;;;;;;;5068489;28;20232;-59
2023/07/04 08:28:46;;;;;;;7.53;3.03;;;;;;;;;;5071169;28;20622;-59
2023/07/04 08:31:12;;;;;;;6.50;3.17;;;;;;;;;;5072359;28;20278;-59
2023/07/04 08:33:38;;;;;;;10.07;4.00;;;;;;;;;;5071368;28;20222;-59
2023/07/04 08:36:09;;;;;;;8.33;3.63;;;;;;;;;;5072140;28;20291;-59
2023/07/04 08:38:35;;;;;;;7.63;3.27;;;;;;;;;;5072016;28;20165;-58
2023/07/04 08:41:01;;;;;;;8.23;3.33;;;;;;;;;;5072098;28;20173;-59
2023/07/04 08:43:37;;;;;;;6.00;2.90;;;;;;;;;;5071981;28;20273;-59
2023/07/04 08:46:05;;;;;;;5.00;2.97;;;;;;;;;;5071627;28;20181;-59
2023/07/04 08:48:32;;;;;;;10.00;3.40;;;;;;;;;;5071556;28;20238;-59
2023/07/04 08:50:59;;;;;;;6.53;2.80;;;;;;;;;;5072033;28;20202;-59
2023/07/04 08:53:25;;;;;;;5.43;3.40;;;;;;;;;;5071875;28;20177;-59
2023/07/04 08:55:57;;;;;;;10.03;3.67;;;;;;;;;;5071656;28;20263;-59
2023/07/04 08:58:25;;;;;;;5.87;2.77;;;;;;;;;;5071607;28;20602;-58
2023/07/04 09:00:51;;;;;;;4.83;2.90;;;;;;;;;;5071310;28;20316;-59
2023/07/04 09:03:17;;;;;;;5.90;2.70;;;;;;;;;;5070901;28;20234;-58
2023/07/04 09:05:49;;;;;;;4.63;2.77;;;;;;;;;;5071446;28;20292;-59
2023/07/04 09:08:15;;;;;;;5.17;3.07;;;;;;;;;;5071846;28;20248;-58
2023/07/04 09:10:43;;;;;;;5.30;2.60;;;;;;;;;;5071565;28;20463;-59
2023/07/04 09:13:11;;;;;;;6.40;3.40;;;;;;;;;;5071311;28;20252;-58
2023/07/04 09:15:47;;;;;;;7.67;3.07;;;;;;;;;;5071255;28;20260;-58
2023/07/04 09:18:18;;;;;;;6.83;2.60;;;;;;;;;;5070169;28;20591;-58
2023/07/04 09:20:49;;;;;;;6.83;2.87;;;;;;;;;;5071133;28;20171;-58
2023/07/04 09:23:19;;;;;;;7.33;2.73;;;;;;;;;;5071069;28;20620;-58
2023/07/04 09:25:45;;;;;;;6.67;3.60;;;;;;;;;;5071022;28;20172;-58
2023/07/04 09:28:11;;;;;;;6.97;4.50;;;;;;;;;;5070766;28;20173;-59
2023/07/04 09:30:38;;;;;;;6.67;3.90;;;;;;;;;;5071062;28;20177;-58
2023/07/04 09:33:05;;;;;;;6.57;3.47;;;;;;;;;;5070138;28;20188;-58
2023/07/04 09:35:32;;;;;;;8.87;3.60;;;;;;;;;;5071063;28;20659;-58
2023/07/04 09:38:01;;;;;;;7.73;4.50;;;;;;;;;;5071022;28;20558;-58
2023/07/04 09:40:57;;;;;;;10.50;4.07;;;;;;;;;;5070885;28;20196;-59
2023/07/04 09:43:27;;;;;;;6.50;3.43;;;;;;;;;;5053853;28;20220;-58
2023/07/04 09:45:54;;;;;;;5.27;2.80;;;;;;;;;;5070755;28;20163;-58
2023/07/04 09:48:24;;;;;;;7.27;3.27;;;;;;;;;;5069889;28;20621;-58
2023/07/04 09:50:51;;;;;;;8.83;3.00;;;;;;;;;;5071077;28;20523;-59
2023/07/04 09:53:19;;;;;;;5.23;3.77;;;;;;;;;;5070501;28;20172;-58
2023/07/04 09:56:01;;;;;;;5.63;3.20;;;;;;;;;;5070556;28;20227;-58
2023/07/04 09:58:28;;;;;;;5.40;2.73;;;;;;;;;;5070214;28;20314;-58
2023/07/04 10:01:14;;;;;;;5.00;2.63;;;;;;;;;;5070212;28;20172;-58
2023/07/04 10:03:41;;;;;;;6.00;2.97;;;;;;;;;;5069565;28;20260;-59
2023/07/04 10:06:09;;;;;;;6.20;3.10;;;;;;;;;;5070512;28;20163;-59
2023/07/04 10:08:50;;;;;;;6.37;3.37;;;;;;;;;;5070146;28;20185;-62
2023/07/04 10:11:24;;;;;;;5.80;3.40;;;;;;;;;;5070386;28;20174;-55
2023/07/04 10:13:58;;;;;;;6.53;3.33;;;;;;;;;;5070095;28;20175;-54
2023/07/04 10:16:25;;;;;;;8.07;2.33;;;;;;;;;;5070074;28;20191;-55
2023/07/04 10:18:51;;;;;;;5.17;3.20;;;;;;;;;;5069569;28;20675;-54
2023/07/04 10:21:18;;;;;;;10.07;2.90;;;;;;;;;;5070174;28;20172;-54
2023/07/04 10:23:44;;;;;;;6.90;2.50;;;;;;;;;;5069808;28;20167;-59
2023/07/04 10:26:12;;;;;;;5.60;2.60;;;;;;;;;;5069792;28;20176;-53
2023/07/04 10:28:38;;;;;;;5.73;2.67;;;;;;;;;;5070042;28;20211;-58
2023/07/04 10:31:09;;;;;;;6.10;2.43;;;;;;;;;;5070203;28;20189;-56
2023/07/04 10:33:42;;;;;;;7.43;2.97;;;;;;;;;;5069388;28;20219;-58
2023/07/04 10:36:11;;;;;;;4.27;2.43;;;;;;;;;;5069906;28;20224;-58
2023/07/04 10:38:41;;;;;;;4.37;2.20;;;;;;;;;;5070203;28;20180;-60
2023/07/04 10:41:23;;;;;;;7.23;3.13;;;;;;;;;;5070162;28;20278;-59
2023/07/04 10:44:03;;;;;;;9.20;2.80;;;;;;;;;;5069428;28;20168;-62
2023/07/04 10:46:30;;;;;;;4.60;2.67;;;;;;;;;;5069079;28;20161;-60
2023/07/04 10:49:04;;;;;;;4.43;2.43;;;;;;;;;;5068652;28;20200;-60
2023/07/04 10:51:33;;;;;;;4.77;2.80;;;;;;;;;;5068913;28;20588;-61
2023/07/04 10:54:00;;;;;;;4.53;2.40;;;;;;;;;;5069768;28;20204;-61
2023/07/04 10:56:31;;;;;;;8.03;3.07;;;;;;;;;;5069125;28;20224;-61
2023/07/04 10:59:03;;;;;;;3.87;2.63;;;;;;;;;;5069311;28;20169;-60
2023/07/04 11:01:33;;;;;;;4.90;2.30;;;;;;;;;;5068887;28;20215;-61
2023/07/04 11:04:04;;;;;;;5.60;2.80;;;;;;;;;;5068272;28;20196;-60
2023/07/04 11:06:37;;;;;;;3.57;2.67;;;;;;;;;;5069114;28;20173;-58
2023/07/04 11:09:06;;;;;;;5.20;2.83;;;;;;;;;;5068990;28;20176;-60
2023/07/04 11:11:32;;;;;;;4.87;3.00;;;;;;;;;;5068965;28;20177;-58
2023/07/04 11:14:01;;;;;;;6.23;2.70;;;;;;;;;;5068875;28;20195;-60
2023/07/04 11:16:29;;;;;;;4.50;2.40;;;;;;;;;;5068753;28;20326;-60
2023/07/04 11:19:04;;;;;;;6.83;3.13;;;;;;;;;;5068193;28;20341;-58
2023/07/04 11:21:30;;;;;;;8.67;2.97;;;;;;;;;;5068525;28;20191;-58
2023/07/04 11:24:18;;;;;;;6.70;3.30;;;;;;;;;;5068646;28;20161;-58
2023/07/04 11:27:00;;;;;;;4.23;2.20;;;;;;;;;;5068837;28;20305;-58
2023/07/04 11:29:27;;;;;;;5.20;2.30;;;;;;;;;;5069038;28;20215;-58
2023/07/04 11:32:03;;;;;;;4.73;2.37;;;;;;;;;;5067764;28;20252;-58
2023/07/04 11:34:43;;;;;;;3.70;2.70;;;;;;;;;;5068650;28;20188;-58
2023/07/04 11:37:10;;;;;;;4.53;2.53;;;;;;;;;;5067995;28;20160;-58
2023/07/04 11:39:37;;;;;;;4.87;3.03;;;;;;;;;;5068808;28;20793;-58
2023/07/04 11:42:29;;;;;;;4.53;2.90;;;;;;;;;;5068529;28;20597;-58
2023/07/04 11:44:56;;;;;;;3.63;3.00;;;;;;;;;;5037949;28;20325;-58
2023/07/04 11:47:49;;;;;;;4.57;2.90;;;;;;;;;;5067798;28;20165;-58
2023/07/04 11:50:21;;;;;;;4.27;3.07;;;;;;;;;;5065335;28;20199;-58
2023/07/04 11:52:52;;;;;;;5.97;3.10;;;;;;;;;;5050785;28;20306;-58
2023/07/04 11:55:22;;;;;;;3.47;2.77;;;;;;;;;;5068161;28;20196;-58
2023/07/04 11:58:06;;;;;;;5.17;2.70;;;;;;;;;;5068559;28;20581;-58
2023/07/04 12:00:33;;;;;;;5.70;3.10;;;;;;;;;;5068195;28;20201;-58
2023/07/04 12:03:18;;;;;;;5.23;3.10;;;;;;;;;;5067356;28;20673;-58
2023/07/04 12:05:54;;;;;;;5.67;3.60;;;;;;;;;;5068164;28;20197;-58
2023/07/04 12:08:39;;;;;;;3.90;3.40;;;;;;;;;;5068976;28;20637;-59
2023/07/04 12:11:06;;;;;;;5.57;3.43;;;;;;;;;;5068494;28;20188;-58
2023/07/04 12:13:35;;;;;;;8.70;3.13;;;;;;;;;;5068931;28;20652;-58
2023/07/04 12:16:01;;;;;;;4.13;3.20;;;;;;;;;;5068195;28;20601;-59
2023/07/04 12:18:28;;;;;;;6.20;3.57;;;;;;;;;;5067623;28;20228;-59
2023/07/04 12:20:56;;;;;;;5.27;3.50;;;;;;;;;;5068284;28;20222;-59
2023/07/04 12:23:23;;;;;;;6.03;3.83;;;;;;;;;;5068242;28;20192;-58
2023/07/04 12:25:51;;;;;;;4.57;3.13;;;;;;;;;;5067986;28;20672;-59
2023/07/04 12:28:18;;;;;;;4.00;3.17;;;;;;;;;;5067786;28;20150;-59
2023/07/04 12:30:49;;;;;;;5.73;3.43;;;;;;;;;;5068092;28;20163;-59
2023/07/04 12:33:20;;;;;;;6.17;3.40;;;;;;;;;;5067722;28;20185;-59
2023/07/04 12:35:54;;;;;;;5.83;4.20;;;;;;;;;;5067851;28;20668;-59
2023/07/04 12:38:21;;;;;;;4.87;3.23;;;;;;;;;;5068616;28;20669;-58
2023/07/04 12:40:48;;;;;;;6.00;3.77;;;;;;;;;;5068345;28;20591;-59
2023/07/04 12:43:15;;;;;;;9.03;3.70;;;;;;;;;;5068204;28;20645;-59
2023/07/04 12:45:41;;;;;;;5.03;3.27;;;;;;;;;;5049451;28;20181;-59
2023/07/04 12:48:10;;;;;;;5.17;3.20;;;;;;;;;;5067809;28;20532;-59
2023/07/04 12:50:41;;;;;;;5.17;3.30;;;;;;;;;;5068027;28;20199;-59
2023/07/04 12:53:08;;;;;;;6.57;3.60;;;;;;;;;;5068419;28;20194;-59
2023/07/04 12:55:36;;;;;;;6.93;4.33;;;;;;;;;;5067734;28;20263;-58
2023/07/04 12:58:06;;;;;;;4.70;3.53;;;;;;;;;;5067821;28;20185;-59
2023/07/04 13:00:43;;;;;;;3.83;3.33;;;;;;;;;;5067592;28;20165;-59
2023/07/04 13:03:15;;;;;;;6.50;3.63;;;;;;;;;;5067083;28;20170;-59
2023/07/04 13:05:46;;;;;;;4.90;3.80;;;;;;;;;;5067884;28;20205;-59
2023/07/04 13:08:23;;;;;;;7.27;3.80;;;;;;;;;;5067772;28;20185;-59
2023/07/04 13:10:50;;;;;;;7.13;3.90;;;;;;;;;;5067859;28;20325;-59
2023/07/04 13:13:36;;;;;;;4.67;3.70;;;;;;;;;;5068179;28;20197;-59
2023/07/04 13:16:21;;;;;;;4.40;3.97;;;;;;;;;;5070642;28;20231;-59
2023/07/04 13:18:47;;;;;;;4.83;3.63;;;;;;;;;;5052695;28;20191;-59
2023/07/04 13:21:28;;;;;;;6.67;4.27;;;;;;;;;;5071287;28;20194;-59
2023/07/04 13:23:55;;;;;;;7.17;3.93;;;;;;;;;;5071098;28;20188;-59
2023/07/04 13:26:24;;;;;;;6.17;4.40;;;;;;;;;;5071151;28;20253;-59
2023/07/04 13:28:55;;;;;;;4.57;4.13;;;;;;;;;;5071020;28;20176;-59
2023/07/04 13:31:31;;;;;;;5.80;5.20;;;;;;;;;;5071019;28;20605;-62
2023/07/04 13:34:18;;;;;;;12.40;5.00;;;;;;;;;;5052900;28;20180;-59
2023/07/04 13:36:48;;;;;;;6.70;4.37;;;;;;;;;;5071112;28;20203;-59
2023/07/04 13:39:15;;;;;;;9.30;4.87;;;;;;;;;;5071259;28;20174;-59
2023/07/04 13:41:46;;;;;;;8.40;4.37;;;;;;;;;;5071542;28;20224;-59
2023/07/04 13:44:13;;;;;;;5.90;4.67;;;;;;;;;;5070844;28;20530;-59
2023/07/04 13:46:41;;;;;;;7.10;4.90;;;;;;;;;;5070725;28;20694;-59
2023/07/04 13:49:07;;;;;;;6.70;4.80;;;;;;;;;;5069916;28;20192;-59
2023/07/04 13:51:34;;;;;;;6.53;4.60;;;;;;;;;;5070708;28;20198;-59
2023/07/04 13:54:04;;;;;;;6.00;4.87;;;;;;;;;;5071059;28;20169;-59
2023/07/04 13:56:30;;;;;;;8.00;4.70;;;;;;;;;;5070381;28;20230;-59
2023/07/04 13:58:57;;;;;;;6.07;4.27;;;;;;;;;;5070559;28;20176;-60
2023/07/04 14:01:23;;;;;;;6.37;5.30;;;;;;;;;;5070151;28;20184;-60
2023/07/04 14:03:49;;;;;;;7.00;4.80;;;;;;;;;;5069672;28;20197;-60
2023/07/04 14:06:16;;;;;;;6.70;4.97;;;;;;;;;;5070401;28;20702;-60
2023/07/04 14:08:43;;;;;;;6.93;5.30;;;;;;;;;;5070560;28;20181;-59
2023/07/04 14:11:13;;;;;;;7.67;5.30;;;;;;;;;;5070933;28;20184;-59
2023/07/04 14:13:39;;;;;;;7.33;4.80;;;;;;;;;;5070400;28;20158;-59
2023/07/04 14:16:07;;;;;;;6.40;5.10;;;;;;;;;;5051654;28;20201;-59
2023/07/04 14:18:33;;;;;;;6.50;5.07;;;;;;;;;;5069374;28;20186;-59
2023/07/04 14:21:04;;;;;;;6.90;5.57;;;;;;;;;;5070181;28;20650;-59
2023/07/04 14:23:30;;;;;;;9.10;5.50;;;;;;;;;;5070169;28;20215;-59
2023/07/04 14:25:56;;;;;;;8.73;5.70;;;;;;;;;;5069883;28;20175;-59
2023/07/04 14:28:22;;;;;;;9.27;5.97;;;;;;;;;;5069949;28;20187;-59
2023/07/04 14:30:54;;;;;;;6.27;5.50;;;;;;;;;;5070062;28;20202;-59
2023/07/04 14:33:22;;;;;;;7.13;5.53;;;;;;;;;;5069611;28;20171;-60
2023/07/04 14:35:48;;;;;;;7.47;5.83;;;;;;;;;;5070360;28;20199;-59
2023/07/04 14:38:15;;;;;;;8.60;6.37;;;;;;;;;;5069934;28;20166;-59
2023/07/04 14:40:42;;;;;;;7.63;5.97;;;;;;;;;;5070257;28;20178;-59
2023/07/04 14:43:09;;;;;;;8.80;5.37;;;;;;;;;;5069603;28;20178;-58
2023/07/04 14:45:35;;;;;;;7.97;5.80;;;;;;;;;;5069726;28;20164;-58
2023/07/04 14:48:02;;;;;;;7.60;5.43;;;;;;;;;;5068990;28;20194;-58
2023/07/04 14:50:28;;;;;;;6.17;5.57;;;;;;;;;;5069766;28;20532;-58